createdAt,value
2023-05-11T00:01:54.775Z,1.00
2023-05-11T00:04:24.114Z,1.00
2023-05-11T00:06:51.993Z,1.00
2023-05-11T00:09:19.881Z,1.00
2023-05-11T00:11:47.784Z,1.00
2023-05-11T00:14:15.654Z,1.00
2023-05-11T00:16:44.501Z,1.00
2023-05-11T00:19:12.338Z,1.00
2023-05-11T00:21:41.629Z,1.00
2023-05-11T00:24:09.716Z,1.00
2023-05-11T00:26:37.614Z,1.00
2023-05-11T00:29:06.064Z,1.00
2023-05-11T00:31:33.961Z,1.00
2023-05-11T00:34:01.914Z,1.00
2023-05-11T00:36:29.777Z,1.00
2023-05-11T00:38:58.983Z,1.00
2023-05-11T00:41:26.859Z,1.00
2023-05-11T00:43:54.668Z,1.00
2023-05-11T00:46:22.678Z,1.00
2023-05-11T00:48:50.646Z,1.00
2023-05-11T00:51:18.859Z,1.00
2023-05-11T00:53:46.980Z,1.00
2023-05-11T00:56:16.444Z,1.00
2023-05-11T00:58:44.757Z,1.00
2023-05-11T01:01:14.053Z,1.00
2023-05-11T01:03:42.676Z,1.00
2023-05-11T01:06:12.703Z,1.00
2023-05-11T01:08:43.094Z,1.00
2023-05-11T01:11:13.921Z,1.00
2023-05-11T01:13:44.835Z,1.00
2023-05-11T01:16:15.506Z,1.00
2023-05-11T01:18:47.958Z,1.00
2023-05-11T01:21:17.703Z,1.00
2023-05-11T01:23:50.981Z,1.00
2023-05-11T01:26:35.249Z,1.00
2023-05-11T01:29:09.526Z,1.00
2023-05-11T01:31:41.667Z,1.00
2023-05-11T01:34:11.327Z,1.00
2023-05-11T01:36:42.814Z,1.00
2023-05-11T01:39:11.621Z,1.00
2023-05-11T01:41:41.168Z,1.00
2023-05-11T01:44:11.923Z,1.00
2023-05-11T01:46:41.242Z,1.00
2023-05-11T01:49:10.690Z,1.00
2023-05-11T01:51:43.136Z,1.00
2023-05-11T01:54:12.536Z,1.00
2023-05-11T01:56:44.341Z,1.00
2023-05-11T01:59:29.223Z,1.00
2023-05-11T02:02:19.772Z,1.00
2023-05-11T02:05:08.172Z,2.10
2023-05-11T02:07:56.587Z,3.10
2023-05-11T02:10:44.591Z,1.30
2023-05-11T02:13:33.480Z,1.70
2023-05-11T02:16:21.362Z,1.00
2023-05-11T02:19:11.687Z,1.00
2023-05-11T02:22:00.630Z,1.00
2023-05-11T02:24:48.962Z,3.40
2023-05-11T02:27:36.928Z,3.10
2023-05-11T02:30:26.300Z,1.00
2023-05-11T02:33:18.954Z,1.00
2023-05-11T02:36:08.447Z,1.00
2023-05-11T02:38:59.571Z,2.20
2023-05-11T02:41:47.549Z,5.70
2023-05-11T02:44:37.352Z,1.00
2023-05-11T02:47:28.358Z,6.60
2023-05-11T02:50:17.690Z,3.70
2023-05-11T02:53:11.587Z,1.00
2023-05-11T02:55:59.676Z,4.60
2023-05-11T02:58:47.673Z,1.00
2023-05-11T03:01:36.307Z,6.70
2023-05-11T03:04:24.487Z,1.00
2023-05-11T03:07:12.437Z,6.60
2023-05-11T03:10:01.698Z,3.60
2023-05-11T03:12:49.509Z,6.30
2023-05-11T03:15:38.029Z,7.00
2023-05-11T03:18:26.688Z,8.50
2023-05-11T03:21:16.205Z,2.50
2023-05-11T03:24:04.594Z,3.70
2023-05-11T03:26:34.677Z,4.30
2023-05-11T03:29:03.482Z,10.30
2023-05-11T03:31:31.432Z,6.10
2023-05-11T03:33:59.453Z,11.20
2023-05-11T03:36:27.763Z,7.70
2023-05-11T03:38:57.377Z,1.80
2023-05-11T03:41:27.650Z,11.70
2023-05-11T03:43:57.924Z,10.70
2023-05-11T03:46:27.246Z,10.70
2023-05-11T03:48:55.494Z,12.70
2023-05-11T03:51:23.589Z,5.70
2023-05-11T03:53:51.472Z,7.10
2023-05-11T03:56:19.337Z,10.20
2023-05-11T03:58:47.322Z,14.10
2023-05-11T04:01:16.621Z,20.80
2023-05-11T04:03:50.837Z,20.50
2023-05-11T04:06:19.232Z,22.00
2023-05-11T04:08:47.163Z,13.80
2023-05-11T04:11:15.110Z,11.30
2023-05-11T04:13:43.014Z,11.40
2023-05-11T04:16:10.987Z,10.50
2023-05-11T04:18:40.525Z,8.40
2023-05-11T04:21:08.522Z,11.10
2023-05-11T04:23:37.258Z,9.10
2023-05-11T04:26:05.279Z,4.80
2023-05-11T04:28:33.226Z,5.60
2023-05-11T04:31:01.161Z,1.50
2023-05-11T04:33:29.145Z,4.40
2023-05-11T04:35:58.881Z,4.20
2023-05-11T04:38:27.223Z,1.00
2023-05-11T04:40:55.149Z,1.00
2023-05-11T04:43:23.370Z,1.00
2023-05-11T04:45:51.555Z,1.00
2023-05-11T04:48:20.986Z,1.00
2023-05-11T04:50:49.270Z,1.00
2023-05-11T04:53:18.500Z,1.00
2023-05-11T04:55:46.365Z,1.00
2023-05-11T04:58:14.355Z,1.00
2023-05-11T05:00:42.444Z,1.00
2023-05-11T05:03:10.498Z,1.00
2023-05-11T05:05:38.413Z,1.00
2023-05-11T05:08:07.375Z,1.00
2023-05-11T05:10:36.604Z,1.00
2023-05-11T05:13:04.447Z,1.00
2023-05-11T05:15:32.470Z,1.00
2023-05-11T05:18:00.371Z,1.00
2023-05-11T05:20:28.247Z,1.00
2023-05-11T05:22:56.268Z,1.00
2023-05-11T05:25:24.230Z,1.00
2023-05-11T05:27:53.449Z,1.00
2023-05-11T05:30:21.508Z,1.00
2023-05-11T05:32:49.465Z,1.00
2023-05-11T05:35:17.331Z,1.00
2023-05-11T05:37:45.306Z,1.00
2023-05-11T05:40:13.338Z,1.00
2023-05-11T05:42:41.407Z,1.00
2023-05-11T05:45:13.980Z,1.00
2023-05-11T05:47:42.876Z,1.00
2023-05-11T05:50:11.693Z,1.00
2023-05-11T05:52:39.760Z,1.00
2023-05-11T05:55:07.908Z,1.00
2023-05-11T05:57:35.906Z,1.00
2023-05-11T06:00:03.971Z,1.00
2023-05-11T06:02:33.274Z,1.00
2023-05-11T06:05:01.416Z,1.00
2023-05-11T06:07:29.514Z,1.00
2023-05-11T06:09:57.340Z,1.00
2023-05-11T06:12:25.204Z,1.00
2023-05-11T06:14:53.120Z,1.00
2023-05-11T06:17:21.018Z,1.00
2023-05-11T06:19:52.315Z,1.00
2023-05-11T06:22:20.230Z,2.20
2023-05-11T06:24:48.107Z,8.50
2023-05-11T06:27:18.064Z,10.00
2023-05-11T06:29:47.081Z,10.30
2023-05-11T06:32:14.935Z,9.40
2023-05-11T06:34:42.813Z,10.40
2023-05-11T06:37:12.252Z,11.50
2023-05-11T06:39:40.144Z,9.30
2023-05-11T06:42:08.183Z,10.20
2023-05-11T06:44:36.164Z,12.00
2023-05-11T06:47:04.231Z,12.20
2023-05-11T06:49:32.429Z,12.90
2023-05-11T06:52:00.453Z,13.70
2023-05-11T06:54:30.165Z,14.90
2023-05-11T06:56:58.113Z,16.00
2023-05-11T06:59:26.148Z,17.50
2023-05-11T07:01:54.073Z,18.10
2023-05-11T07:04:21.985Z,20.10
2023-05-11T07:06:49.857Z,18.90
2023-05-11T07:09:17.812Z,19.90
2023-05-11T07:11:47.245Z,18.80
2023-05-11T07:14:15.232Z,17.80
2023-05-11T07:16:43.239Z,19.10
2023-05-11T07:19:11.209Z,18.30
2023-05-11T07:21:39.257Z,18.20
2023-05-11T07:24:07.421Z,19.40
2023-05-11T07:26:35.349Z,20.40
2023-05-11T07:29:04.626Z,20.50
2023-05-11T07:31:33.537Z,22.10
2023-05-11T07:34:01.477Z,22.50
2023-05-11T07:36:30.038Z,22.40
2023-05-11T07:38:59.487Z,21.60
2023-05-11T07:41:27.651Z,23.20
2023-05-11T07:43:55.695Z,24.20
2023-05-11T07:46:25.116Z,23.80
2023-05-11T07:49:03.406Z,23.60
2023-05-11T07:51:35.661Z,24.70
2023-05-11T07:54:03.601Z,24.70
2023-05-11T07:56:31.458Z,25.90
2023-05-11T07:58:59.387Z,26.40
2023-05-11T08:01:28.650Z,26.70
2023-05-11T08:03:56.961Z,26.80
2023-05-11T08:06:25.252Z,25.50
2023-05-11T08:08:53.117Z,24.30
2023-05-11T08:11:21.674Z,23.20
2023-05-11T08:13:49.614Z,25.00
2023-05-11T08:16:18.240Z,24.80
2023-05-11T08:18:47.741Z,25.70
2023-05-11T08:21:16.102Z,25.10
2023-05-11T08:23:45.254Z,24.10
2023-05-11T08:26:13.120Z,22.30
2023-05-11T08:28:41.065Z,21.00
2023-05-11T08:31:09.284Z,21.20
2023-05-11T08:33:38.562Z,21.20
2023-05-11T08:36:08.919Z,20.50
2023-05-11T08:38:37.221Z,20.10
2023-05-11T08:41:05.227Z,20.40
2023-05-11T08:43:35.536Z,21.00
2023-05-11T08:46:05.126Z,21.30
2023-05-11T08:48:33.341Z,20.40
2023-05-11T08:51:02.050Z,21.60
2023-05-11T08:53:31.656Z,20.90
2023-05-11T08:56:01.060Z,20.80
2023-05-11T08:58:29.056Z,19.90
2023-05-11T09:00:57.674Z,18.00
2023-05-11T09:03:25.760Z,19.00
2023-05-11T09:05:54.197Z,18.80
2023-05-11T09:08:23.185Z,18.10
2023-05-11T09:10:52.709Z,20.70
2023-05-11T09:13:20.694Z,17.50
2023-05-11T09:15:48.540Z,19.60
2023-05-11T09:18:16.457Z,20.30
2023-05-11T09:20:45.062Z,20.30
2023-05-11T09:23:16.779Z,19.30
2023-05-11T09:25:44.749Z,17.10
2023-05-11T09:28:17.362Z,17.10
2023-05-11T09:30:53.495Z,17.30
2023-05-11T09:33:25.217Z,16.80
2023-05-11T09:35:53.804Z,17.00
2023-05-11T09:38:23.126Z,16.40
2023-05-11T09:40:52.627Z,16.70
2023-05-11T09:43:22.902Z,16.20
2023-05-11T09:45:51.575Z,18.10
2023-05-11T09:48:26.723Z,16.30
2023-05-11T09:51:00.389Z,17.40
2023-05-11T09:53:38.687Z,17.20
2023-05-11T09:56:06.857Z,15.40
2023-05-11T09:58:52.182Z,16.80
2023-05-11T10:01:32.223Z,15.60
2023-05-11T10:04:17.798Z,16.20
2023-05-11T10:06:50.620Z,15.80
2023-05-11T10:09:19.660Z,14.70
2023-05-11T10:11:47.778Z,14.60
2023-05-11T10:14:17.513Z,14.90
2023-05-11T10:16:45.556Z,15.70
2023-05-11T10:19:14.024Z,15.30
2023-05-11T10:21:42.339Z,14.60
2023-05-11T10:24:11.276Z,15.70
2023-05-11T10:26:39.436Z,16.20
2023-05-11T10:29:07.377Z,15.60
2023-05-11T10:31:38.250Z,14.50
2023-05-11T10:34:07.810Z,16.40
2023-05-11T10:36:36.300Z,17.20
2023-05-11T10:39:05.809Z,16.50
2023-05-11T10:41:40.491Z,16.20
2023-05-11T10:44:21.176Z,15.60
2023-05-11T10:47:10.586Z,17.90
2023-05-11T10:49:46.732Z,16.90
2023-05-11T10:52:27.239Z,16.00
2023-05-11T10:55:04.641Z,15.20
2023-05-11T10:57:38.549Z,14.30
2023-05-11T11:00:31.256Z,14.20
2023-05-11T11:03:09.572Z,14.80
2023-05-11T11:05:38.966Z,15.40
2023-05-11T11:08:09.216Z,15.20
2023-05-11T11:10:38.391Z,16.60
2023-05-11T11:13:07.343Z,17.40
2023-05-11T11:15:54.504Z,17.20
2023-05-11T11:18:24.657Z,17.50
2023-05-11T11:20:53.443Z,18.20
2023-05-11T11:23:40.558Z,18.20
2023-05-11T11:26:08.798Z,17.40
2023-05-11T11:28:57.247Z,17.30
2023-05-11T11:31:25.921Z,17.60
2023-05-11T11:33:58.678Z,16.70
2023-05-11T11:36:41.439Z,17.90
2023-05-11T11:39:09.420Z,17.00
2023-05-11T11:41:38.128Z,17.50
2023-05-11T11:44:06.126Z,18.00
2023-05-11T11:46:34.133Z,16.60
2023-05-11T11:49:10.476Z,16.70
2023-05-11T11:51:40.557Z,16.80
2023-05-11T11:54:09.059Z,18.80
2023-05-11T11:56:43.818Z,18.10
2023-05-11T11:59:13.997Z,18.40
2023-05-11T12:01:43.909Z,19.30
2023-05-11T12:04:42.059Z,20.20
2023-05-11T12:07:11.743Z,19.10
2023-05-11T12:09:40.094Z,19.00
2023-05-11T12:12:08.154Z,19.90
2023-05-11T12:14:36.328Z,20.30
2023-05-11T12:17:05.188Z,19.30
2023-05-11T12:19:33.115Z,19.60
2023-05-11T12:22:01.375Z,20.30
2023-05-11T12:24:30.784Z,20.90
2023-05-11T12:26:58.830Z,20.70
2023-05-11T12:29:27.123Z,20.40
2023-05-11T12:31:55.880Z,20.10
2023-05-11T12:34:24.055Z,19.30
2023-05-11T12:36:52.818Z,19.00
2023-05-11T12:39:21.637Z,18.30
2023-05-11T12:41:51.794Z,18.80
2023-05-11T12:44:20.447Z,19.00
2023-05-11T12:46:48.777Z,19.20
2023-05-11T12:49:24.733Z,19.20
2023-05-11T12:51:53.873Z,19.40
2023-05-11T12:54:29.015Z,19.60
2023-05-11T12:56:58.883Z,19.90
2023-05-11T12:59:28.319Z,19.50
2023-05-11T13:01:56.362Z,20.00
2023-05-11T13:04:31.058Z,19.80
2023-05-11T13:07:01.515Z,20.60
2023-05-11T13:09:29.821Z,20.50
2023-05-11T13:12:12.419Z,20.30
2023-05-11T13:14:40.469Z,21.70
2023-05-11T13:17:09.304Z,21.50
2023-05-11T13:19:37.778Z,21.80
2023-05-11T13:22:06.418Z,21.20
2023-05-11T13:24:34.731Z,20.90
2023-05-11T13:27:02.913Z,21.50
2023-05-11T13:29:32.240Z,21.50
2023-05-11T13:32:00.233Z,21.60
2023-05-11T13:34:28.172Z,20.90
2023-05-11T13:36:56.242Z,21.20
2023-05-11T13:39:24.079Z,20.50
2023-05-11T13:41:54.324Z,21.50
2023-05-11T13:44:23.616Z,22.20
2023-05-11T13:46:53.153Z,20.70
2023-05-11T13:49:21.209Z,20.80
2023-05-11T13:51:49.149Z,21.00
2023-05-11T13:54:17.155Z,21.20
2023-05-11T13:56:45.037Z,20.00
2023-05-11T13:59:12.867Z,19.40
2023-05-11T14:01:40.900Z,19.40
2023-05-11T14:04:10.236Z,19.50
2023-05-11T14:06:38.371Z,19.60
2023-05-11T14:09:06.248Z,20.50
2023-05-11T14:11:34.178Z,18.80
2023-05-11T14:14:02.281Z,19.70
2023-05-11T14:16:30.175Z,19.10
2023-05-11T14:18:58.425Z,19.40
2023-05-11T14:21:27.868Z,19.00
2023-05-11T14:24:14.014Z,19.50
2023-05-11T14:26:42.537Z,19.70
2023-05-11T14:29:10.534Z,20.20
2023-05-11T14:31:38.915Z,19.90
2023-05-11T14:34:07.024Z,21.00
2023-05-11T14:36:37.253Z,20.40
2023-05-11T14:39:05.289Z,20.50
2023-05-11T14:41:33.281Z,20.90
2023-05-11T14:44:01.196Z,21.10
2023-05-11T14:46:29.119Z,21.00
2023-05-11T14:48:57.005Z,20.90
2023-05-11T14:51:25.492Z,21.60
2023-05-11T14:53:54.825Z,21.00
2023-05-11T14:56:23.344Z,20.60
2023-05-11T14:58:51.478Z,21.30
2023-05-11T15:01:19.421Z,21.10
2023-05-11T15:03:47.531Z,21.20
2023-05-11T15:06:20.987Z,20.50
2023-05-11T15:08:49.425Z,21.00
2023-05-11T15:11:19.478Z,21.30
2023-05-11T15:13:48.487Z,21.50
2023-05-11T15:16:16.521Z,21.10
2023-05-11T15:18:44.617Z,21.90
2023-05-11T15:21:12.634Z,21.10
2023-05-11T15:23:40.750Z,21.30
2023-05-11T15:26:08.812Z,21.20
2023-05-11T15:28:38.296Z,20.80
2023-05-11T15:31:06.195Z,21.20
2023-05-11T15:33:34.321Z,20.90
2023-05-11T15:36:02.557Z,21.70
2023-05-11T15:38:31.036Z,21.40
2023-05-11T15:40:59.355Z,22.40
2023-05-11T15:43:27.318Z,21.20
2023-05-11T15:45:56.876Z,22.60
2023-05-11T15:48:24.983Z,21.80
2023-05-11T15:50:52.978Z,23.00
2023-05-11T15:53:20.954Z,22.80
2023-05-11T15:55:50.906Z,21.80
2023-05-11T15:58:18.886Z,21.40
2023-05-11T16:00:46.806Z,21.60
2023-05-11T16:03:16.408Z,21.50
2023-05-11T16:05:45.523Z,21.50
2023-05-11T16:08:13.931Z,21.40
2023-05-11T16:10:41.858Z,22.30
2023-05-11T16:13:10.008Z,22.30
2023-05-11T16:15:37.992Z,22.90
2023-05-11T16:18:06.126Z,22.10
2023-05-11T16:20:35.366Z,21.90
2023-05-11T16:23:04.238Z,22.10
2023-05-11T16:25:32.312Z,22.90
2023-05-11T16:28:00.216Z,22.40
2023-05-11T16:30:28.311Z,22.10
2023-05-11T16:32:56.436Z,22.30
2023-05-11T16:35:24.390Z,23.10
2023-05-11T16:37:54.983Z,21.70
2023-05-11T16:40:23.110Z,21.70
2023-05-11T16:42:51.128Z,22.00
2023-05-11T16:45:20.026Z,23.30
2023-05-11T16:47:48.256Z,22.80
2023-05-11T16:50:16.594Z,22.90
2023-05-11T16:52:45.152Z,23.10
2023-05-11T16:55:15.945Z,23.20
2023-05-11T16:57:44.674Z,22.70
2023-05-11T17:00:13.392Z,23.20
2023-05-11T17:02:41.467Z,23.10
2023-05-11T17:05:10.539Z,23.40
2023-05-11T17:07:38.747Z,24.80
2023-05-11T17:10:07.360Z,23.30
2023-05-11T17:12:36.851Z,22.60
2023-05-11T17:15:09.471Z,23.20
2023-05-11T17:17:37.940Z,23.60
2023-05-11T17:20:07.559Z,23.50
2023-05-11T17:22:35.920Z,23.20
2023-05-11T17:25:04.795Z,23.60
2023-05-11T17:27:32.813Z,23.50
2023-05-11T17:30:02.081Z,23.10
2023-05-11T17:32:30.289Z,23.90
2023-05-11T17:34:58.723Z,24.20
2023-05-11T17:37:31.783Z,23.90
2023-05-11T17:40:00.903Z,24.00
2023-05-11T17:42:30.655Z,24.30
2023-05-11T17:44:58.786Z,24.10
2023-05-11T17:47:28.934Z,23.60
2023-05-11T17:49:57.141Z,23.50
2023-05-11T17:52:25.821Z,24.30
2023-05-11T17:54:53.947Z,24.00
2023-05-11T17:57:23.827Z,24.10
2023-05-11T17:59:51.890Z,24.90
2023-05-11T18:02:19.887Z,24.80
2023-05-11T18:04:49.159Z,24.50
2023-05-11T18:07:17.044Z,24.40
2023-05-11T18:09:44.990Z,24.60
2023-05-11T18:12:12.935Z,23.80
2023-05-11T18:14:41.197Z,24.60
2023-05-11T18:17:09.247Z,25.20
2023-05-11T18:19:37.351Z,24.70
2023-05-11T18:22:06.818Z,25.00
2023-05-11T18:24:34.769Z,24.80
2023-05-11T18:27:02.672Z,24.90
2023-05-11T18:29:30.598Z,25.10
2023-05-11T18:31:58.557Z,25.20
2023-05-11T18:34:27.566Z,25.20
2023-05-11T18:36:55.867Z,25.20
2023-05-11T18:39:25.085Z,25.30
2023-05-11T18:41:53.194Z,25.50
2023-05-11T18:44:21.078Z,25.40
2023-05-11T18:46:49.082Z,25.40
2023-05-11T18:49:17.039Z,25.50
2023-05-11T18:51:45.007Z,25.50
2023-05-11T18:54:12.924Z,25.50
2023-05-11T18:56:42.320Z,25.90
2023-05-11T18:59:10.326Z,25.80
2023-05-11T19:01:47.159Z,25.60
2023-05-11T19:04:19.404Z,25.60
2023-05-11T19:06:47.434Z,25.90
2023-05-11T19:09:15.355Z,25.60
2023-05-11T19:11:44.763Z,25.50
2023-05-11T19:14:14.584Z,25.50
2023-05-11T19:16:42.861Z,25.70
2023-05-11T19:19:11.353Z,26.40
2023-05-11T19:21:40.526Z,25.40
2023-05-11T19:24:08.714Z,25.10
2023-05-11T19:26:36.819Z,25.90
2023-05-11T19:29:06.340Z,25.90
2023-05-11T19:31:34.365Z,26.20
2023-05-11T19:34:03.148Z,26.20
2023-05-11T19:36:32.153Z,26.60
2023-05-11T19:39:00.853Z,25.90
2023-05-11T19:41:29.069Z,26.70
2023-05-11T19:43:58.266Z,27.10
2023-05-11T19:46:28.006Z,27.20
2023-05-11T19:48:56.375Z,28.20
2023-05-11T19:51:24.444Z,28.40
2023-05-11T19:53:53.672Z,28.20
2023-05-11T19:56:21.795Z,28.40
2023-05-11T19:58:51.021Z,21.80
2023-05-11T20:01:19.150Z,21.20
2023-05-11T20:03:48.733Z,19.30
2023-05-11T20:06:16.785Z,19.50
2023-05-11T20:08:48.671Z,20.00
2023-05-11T20:11:17.186Z,19.30
2023-05-11T20:13:46.807Z,19.10
2023-05-11T20:16:15.035Z,18.20
2023-05-11T20:18:43.157Z,19.70
2023-05-11T20:21:12.843Z,17.40
2023-05-11T20:23:40.707Z,17.80
2023-05-11T20:26:08.602Z,18.00
2023-05-11T20:28:36.540Z,15.50
2023-05-11T20:31:04.878Z,16.30
2023-05-11T20:36:03.862Z,14.30
2023-05-11T20:38:33.232Z,13.70
2023-05-11T20:41:01.073Z,11.10
2023-05-11T20:43:29.485Z,9.30
2023-05-11T20:46:02.370Z,7.20
2023-05-11T20:48:40.073Z,2.20
2023-05-11T20:51:08.785Z,1.80
2023-05-11T20:53:38.410Z,1.00
2023-05-11T20:56:06.360Z,1.50
2023-05-11T20:58:34.304Z,1.30
2023-05-11T21:01:02.184Z,1.00
2023-05-11T21:03:30.118Z,1.00
2023-05-11T21:05:58.168Z,1.00
2023-05-11T21:08:26.158Z,1.00
2023-05-11T21:10:55.994Z,1.00
2023-05-11T21:13:24.617Z,1.00
2023-05-11T21:15:52.608Z,1.00
2023-05-11T21:18:20.811Z,1.00
2023-05-11T21:20:49.006Z,1.00
2023-05-11T21:23:16.992Z,1.00
2023-05-11T21:25:44.857Z,1.00
2023-05-11T21:28:14.100Z,1.00
2023-05-11T21:30:42.220Z,1.00
2023-05-11T21:33:10.127Z,1.00
2023-05-11T21:35:38.017Z,1.00
2023-05-11T21:38:05.925Z,1.00
2023-05-11T21:40:33.765Z,1.00
2023-05-11T21:43:01.698Z,1.00
2023-05-11T21:45:31.008Z,1.00
2023-05-11T21:47:59.305Z,1.00
2023-05-11T21:50:27.284Z,1.00
2023-05-11T21:52:55.286Z,1.00
2023-05-11T21:55:23.331Z,1.00
2023-05-11T21:57:51.462Z,1.00
2023-05-11T22:00:20.329Z,1.00
2023-05-11T22:02:50.001Z,1.00
2023-05-11T22:05:18.253Z,1.00
2023-05-11T22:07:46.144Z,1.00
2023-05-11T22:10:14.103Z,1.00
2023-05-11T22:12:42.106Z,1.00
2023-05-11T22:15:10.718Z,1.00
2023-05-11T22:17:39.508Z,1.00
2023-05-11T22:20:09.865Z,1.00
2023-05-11T22:22:38.027Z,1.00
2023-05-11T22:25:06.503Z,1.00
2023-05-11T22:27:34.465Z,1.00
2023-05-11T22:30:02.528Z,1.00
2023-05-11T22:32:31.593Z,1.00
2023-05-11T22:34:59.771Z,1.00
2023-05-11T22:37:29.447Z,1.00
2023-05-11T22:39:57.319Z,1.00
2023-05-11T22:42:25.330Z,1.00
2023-05-11T22:44:53.247Z,1.00
2023-05-11T22:47:21.514Z,1.00
2023-05-11T22:49:49.857Z,1.00
2023-05-11T22:52:17.770Z,1.00
2023-05-11T22:54:46.999Z,1.00
2023-05-11T22:57:17.095Z,1.00
2023-05-11T22:59:46.661Z,1.00
2023-05-11T23:02:14.866Z,1.00
2023-05-11T23:04:42.910Z,1.00
2023-05-11T23:07:12.904Z,1.00
2023-05-11T23:09:40.961Z,1.00
2023-05-11T23:12:10.551Z,1.00
2023-05-11T23:14:38.495Z,1.00
2023-05-11T23:17:06.584Z,1.00
2023-05-11T23:19:35.214Z,1.00
2023-05-11T23:22:03.277Z,1.00
2023-05-11T23:24:31.185Z,1.00
2023-05-11T23:26:59.198Z,1.00
2023-05-11T23:29:28.564Z,1.00
2023-05-11T23:31:57.014Z,1.00
2023-05-11T23:34:24.877Z,1.00
2023-05-11T23:36:52.763Z,1.00
2023-05-11T23:39:20.621Z,1.00
2023-05-11T23:41:48.490Z,1.00
2023-05-11T23:44:17.516Z,1.00
2023-05-11T23:46:46.992Z,1.00
2023-05-11T23:49:14.987Z,1.00
2023-05-11T23:51:42.873Z,1.00
2023-05-11T23:54:11.442Z,1.00
2023-05-11T23:56:39.519Z,1.00
2023-05-11T23:59:07.647Z,1.00
